This is the latest recevied weather packets stored in our database for station/object IR1CH-3. If no packets are shown the sender has not sent any weather packets the latest 10 day(s).
| Time | Temp. | Humidity | Pressure | Rain* | Wind** | Luminosity | Snow |
|---|---|---|---|---|---|---|---|
| 1788548933 | 26.11° C | 99% | 1017.1 hPa | - | - | - | - |
| 1788543532 | 25° C | 99% | 1016.6 hPa | - | - | - | - |
| 1788541732 | 25.56° C | 99% | 1016.6 hPa | - | - | - | - |
| 1788538131 | 25° C | 99% | 1016.9 hPa | - | - | - | - |
| 1788536331 | 25.56° C | 99% | 1017.1 hPa | - | - | - | - |
| 1788532730 | 25.56° C | 99% | 1017.2 hPa | - | - | - | - |
| 1788527329 | 25.56° C | 99% | 1017.9 hPa | - | - | - | - |
| 1788523728 | 27.22° C | 99% | 1017.7 hPa | - | - | - | - |
| 1788521928 | 28.33° C | 97% | 1017.8 hPa | - | - | - | - |
| 1788518327 | 27.78° C | 97% | 1018.1 hPa | - | - | - | - |
| 1788514727 | 32.78° C | 74% | 1018.5 hPa | - | - | - | - |
| 1788511126 | 26.11° C | 99% | 1018.2 hPa | - | - | - | - |
| 1788509326 | 26.11° C | 97% | 1018 hPa | - | - | - | - |
| 1788507525 | 25.56° C | 96% | 1017.8 hPa | - | - | - | - |
| 1788505725 | 25° C | 97% | 1017.7 hPa | - | - | - | - |
| 1788503925 | 25° C | 94% | 1017.5 hPa | - | - | - | - |
| 1788502124 | 25.56° C | 89% | 1017.4 hPa | - | - | - | - |
| 1788500324 | 24.44° C | 94% | 1017.3 hPa | - | - | - | - |
| 1788498524 | 23.33° C | 99% | 1017.4 hPa | - | - | - | - |
| 1788496723 | 23.33° C | 99% | 1017.1 hPa | - | - | - | - |
| 1788494923 | 23.89° C | 97% | 1016.8 hPa | - | - | - | - |
| 1788493123 | 23.89° C | 95% | 1016.8 hPa | - | - | - | - |
| 1788491322 | 23.89° C | 96% | 1016.9 hPa | - | - | - | - |
| 1788489522 | 23.33° C | 96% | 1016.9 hPa | - | - | - | - |
| 1788482321 | 23.89° C | 97% | 1017.1 hPa | - | - | - | - |
* Rain since midnight (hover to see other rain measurements)
** Current wind speed in m/s (hover to see current wind gust speed)